createdAt,value
2023-04-11T00:00:55.957Z,0.70
2023-04-11T00:11:01.131Z,0.70
2023-04-11T00:21:05.974Z,0.70
2023-04-11T00:31:11.274Z,0.70
2023-04-11T00:41:15.047Z,0.50
2023-04-11T00:51:21.044Z,0.20
2023-04-11T01:01:25.499Z,0.20
2023-04-11T01:11:31.061Z,0.20
2023-04-11T01:21:36.325Z,0.30
2023-04-11T01:31:41.507Z,0.20
2023-04-11T01:41:46.114Z,0.10
2023-04-11T01:51:51.677Z,-0.10
2023-04-11T02:01:55.639Z,-0.20
2023-04-11T02:12:01.055Z,-0.50
2023-04-11T02:22:04.833Z,-0.60
2023-04-11T02:32:10.393Z,-0.70
2023-04-11T02:42:15.437Z,-0.80
2023-04-11T02:52:21.107Z,-0.70
2023-04-11T03:02:25.222Z,-0.80
2023-04-11T03:12:31.363Z,-0.30
2023-04-11T03:22:39.678Z,-0.70
2023-04-11T03:32:45.785Z,-0.60
2023-04-11T03:42:49.919Z,-0.50
2023-04-11T03:52:59.841Z,-0.40
2023-04-11T04:03:07.185Z,-0.40
2023-04-11T04:13:15.302Z,-0.30
2023-04-11T04:23:30.112Z,-0.40
2023-04-11T04:33:54.254Z,-0.50
2023-04-11T04:44:04.566Z,-0.60
2023-04-11T04:54:21.440Z,-0.40
2023-04-11T05:04:25.472Z,0.00
2023-04-11T05:14:34.632Z,0.20
2023-04-11T05:24:39.024Z,0.80
2023-04-11T05:34:59.301Z,1.40
2023-04-11T05:45:24.107Z,2.00
2023-04-11T05:55:29.504Z,2.60
2023-04-11T06:05:33.692Z,3.60
2023-04-11T06:15:39.258Z,5.30
2023-04-11T06:25:43.015Z,7.50
2023-04-11T06:35:47.985Z,9.80
2023-04-11T06:45:52.075Z,12.10
2023-04-11T06:55:57.993Z,14.30
2023-04-11T07:06:01.733Z,16.20
2023-04-11T07:16:08.202Z,19.00
2023-04-11T07:26:12.257Z,20.50
2023-04-11T07:36:17.555Z,22.30
2023-04-11T07:46:21.157Z,23.40
2023-04-11T07:56:26.170Z,21.30
2023-04-11T08:06:31.544Z,21.70
2023-04-11T08:16:37.212Z,21.10
2023-04-11T08:26:40.899Z,21.70
2023-04-11T08:36:45.736Z,24.30
2023-04-11T08:46:49.658Z,26.60
2023-04-11T08:56:54.559Z,27.20
2023-04-11T09:07:00.755Z,28.50
2023-04-11T09:17:13.295Z,30.40
2023-04-11T09:27:19.731Z,27.20
2023-04-11T09:37:24.732Z,22.00
2023-04-11T09:47:33.929Z,21.20
2023-04-11T09:57:45.716Z,23.10
2023-04-11T10:07:53.805Z,26.30
2023-04-11T10:18:13.045Z,27.30
2023-04-11T10:28:35.956Z,32.10
2023-04-11T10:38:51.459Z,37.00
2023-04-11T10:49:02.472Z,29.60
2023-04-11T10:59:07.381Z,27.20
2023-04-11T11:09:23.350Z,23.90
2023-04-11T11:19:28.456Z,22.70
2023-04-11T11:29:34.431Z,28.10
2023-04-11T11:39:39.431Z,34.90
2023-04-11T11:49:51.770Z,32.50
2023-04-11T11:59:57.132Z,26.40
2023-04-11T12:10:02.351Z,30.70
2023-04-11T12:20:10.843Z,29.40
2023-04-11T12:30:16.221Z,28.60
2023-04-11T12:40:21.458Z,25.10
2023-04-11T12:50:25.312Z,23.10
2023-04-11T13:00:31.455Z,23.70
2023-04-11T13:10:35.273Z,24.80
2023-04-11T13:20:41.018Z,23.60
2023-04-11T13:30:44.713Z,22.30
2023-04-11T13:40:49.991Z,22.10
2023-04-11T13:50:57.438Z,21.20
2023-04-11T14:01:02.354Z,20.70
2023-04-11T14:11:06.664Z,20.00
2023-04-11T14:21:11.552Z,19.30
2023-04-11T14:31:15.178Z,19.40
2023-04-11T14:41:20.626Z,20.10
2023-04-11T14:51:27.197Z,20.10
2023-04-11T15:01:32.109Z,19.30
2023-04-11T15:11:36.014Z,17.80
2023-04-11T15:21:40.932Z,17.00
2023-04-11T15:31:44.460Z,16.20
2023-04-11T15:41:49.428Z,15.40
2023-04-11T15:51:52.888Z,14.70
2023-04-11T16:01:57.973Z,13.00
2023-04-11T16:12:02.162Z,11.90
2023-04-11T16:22:07.251Z,11.40
2023-04-11T16:32:10.938Z,11.20
2023-04-11T16:42:16.125Z,10.90
2023-04-11T16:52:20.050Z,10.60
2023-04-11T17:02:25.140Z,10.30
2023-04-11T17:12:28.855Z,9.90
2023-04-11T17:22:33.853Z,9.60
2023-04-11T17:32:38.396Z,9.40
2023-04-11T17:42:43.777Z,9.10
2023-04-11T17:52:48.492Z,8.90
2023-04-11T18:02:57.753Z,8.70
2023-04-11T18:13:01.526Z,8.40
2023-04-11T18:23:06.479Z,8.20
2023-04-11T18:33:10.297Z,8.10
2023-04-11T18:43:15.448Z,7.90
2023-04-11T18:53:19.542Z,7.70
2023-04-11T19:03:25.522Z,7.40
2023-04-11T19:13:33.103Z,7.20
2023-04-11T19:23:38.685Z,7.10
2023-04-11T19:33:42.355Z,6.90
2023-04-11T19:43:48.987Z,6.70
2023-04-11T19:53:52.680Z,6.60
2023-04-11T20:03:58.341Z,6.40
2023-04-11T20:14:02.188Z,6.30
2023-04-11T20:24:09.734Z,6.20
2023-04-11T20:34:13.323Z,6.10
2023-04-11T20:44:21.331Z,6.00
2023-04-11T20:54:25.159Z,6.00
2023-04-11T21:04:30.218Z,6.00
2023-04-11T21:14:33.792Z,5.90
2023-04-11T21:24:38.788Z,5.90
2023-04-11T21:34:42.360Z,5.90
2023-04-11T21:44:47.185Z,6.00
2023-04-11T21:54:50.737Z,6.00
2023-04-11T22:05:06.341Z,6.00
2023-04-11T22:15:12.691Z,6.10
2023-04-11T22:25:18.293Z,6.10
2023-04-11T22:35:21.941Z,6.00
2023-04-11T22:45:26.804Z,6.00
2023-04-11T22:55:34.255Z,6.00
2023-04-11T23:05:41.096Z,6.00
2023-04-11T23:15:47.347Z,5.90
2023-04-11T23:25:52.317Z,5.80
2023-04-11T23:35:55.983Z,5.80
2023-04-11T23:46:00.831Z,5.80
2023-04-11T23:56:04.380Z,5.70
